Terminal Aerodrome Forecast
Issued by NWS Pittsburgh, PA

Home | Current Version | Previous Version | Text Only | Print | Product List | Glossary On
Versions: 1 2 3 4 5 6 7 8 9 10 11 12 13 14 15 16 17 18 19 20 21 22 23 24 25 26 27 28 29 30 31 32
000
FTUS41 KPBZ 252300
TAFPIT
TAF
KPIT 252334Z 2600/2706 05008KT 1SM -SN OVC007
      TEMPO 2600/2604 1/2SM SN OVC003
     FM261000 04007KT 2SM -SN BR OVC007
     FM262100 01008KT 3SM -SHSN OVC010=

USA.gov is the U.S. government's official web portal to all federal, state and local government web resources and services.